createdAt,value
2023-06-27T00:01:25.488Z,24.80
2023-06-27T00:03:52.972Z,24.80
2023-06-27T00:06:21.085Z,24.70
2023-06-27T00:08:51.024Z,24.70
2023-06-27T00:11:18.305Z,24.70
2023-06-27T00:13:45.262Z,24.60
2023-06-27T00:16:15.182Z,24.60
2023-06-27T00:18:48.874Z,24.60
2023-06-27T00:21:16.550Z,24.60
2023-06-27T00:23:44.685Z,24.60
2023-06-27T00:28:40.765Z,24.50
2023-06-27T00:31:08.020Z,24.40
2023-06-27T00:33:34.936Z,24.40
2023-06-27T00:36:01.942Z,24.40
2023-06-27T00:38:28.964Z,24.40
2023-06-27T00:40:58.296Z,24.30
2023-06-27T00:43:28.662Z,24.30
2023-06-27T00:45:56.495Z,24.30
2023-06-27T00:48:23.445Z,24.30
2023-06-27T00:50:51.191Z,24.30
2023-06-27T00:53:18.301Z,24.30
2023-06-27T00:55:45.357Z,24.30
2023-06-27T00:58:12.295Z,24.30
2023-06-27T01:00:39.697Z,24.30
2023-06-27T01:03:08.509Z,24.30
2023-06-27T01:05:36.505Z,24.30
2023-06-27T01:08:26.815Z,24.30
2023-06-27T01:10:58.055Z,24.30
2023-06-27T01:13:30.445Z,24.30
2023-06-27T01:16:00.366Z,24.30
2023-06-27T01:18:28.799Z,24.30
2023-06-27T01:20:57.017Z,24.20
2023-06-27T01:23:23.997Z,24.20
2023-06-27T01:25:51.888Z,24.20
2023-06-27T01:28:18.755Z,24.20
2023-06-27T01:30:46.143Z,24.20
2023-06-27T01:33:20.657Z,24.20
2023-06-27T01:35:52.330Z,24.20
2023-06-27T01:38:26.413Z,24.20
2023-06-27T01:40:54.094Z,24.20
2023-06-27T01:43:22.616Z,24.20
2023-06-27T01:45:51.431Z,24.20
2023-06-27T01:48:18.804Z,24.20
2023-06-27T01:50:45.695Z,24.20
2023-06-27T01:53:12.715Z,24.20
2023-06-27T01:55:39.837Z,24.30
2023-06-27T01:58:06.949Z,24.30
2023-06-27T02:00:34.296Z,24.30
2023-06-27T02:03:01.228Z,24.20
2023-06-27T02:05:28.249Z,24.20
2023-06-27T02:07:55.144Z,24.10
2023-06-27T02:10:22.397Z,24.10
2023-06-27T02:12:49.266Z,24.10
2023-06-27T02:15:16.152Z,24.10
2023-06-27T02:17:43.169Z,24.00
2023-06-27T02:20:10.171Z,24.10
2023-06-27T02:22:37.167Z,24.00
2023-06-27T02:25:07.027Z,24.00
2023-06-27T02:27:33.889Z,24.00
2023-06-27T02:30:00.705Z,24.00
2023-06-27T02:32:27.614Z,24.00
2023-06-27T02:34:54.483Z,23.90
2023-06-27T02:37:21.321Z,24.00
2023-06-27T02:39:48.159Z,23.90
2023-06-27T02:42:15.028Z,23.90
2023-06-27T02:44:41.943Z,23.90
2023-06-27T02:47:08.810Z,23.80
2023-06-27T02:49:35.612Z,23.90
2023-06-27T02:52:02.487Z,23.90
2023-06-27T02:54:29.330Z,23.80
2023-06-27T02:56:57.642Z,23.80
2023-06-27T02:59:26.211Z,23.80
2023-06-27T03:01:55.463Z,23.80
2023-06-27T03:04:23.994Z,23.80
2023-06-27T03:06:51.376Z,23.80
2023-06-27T03:09:19.467Z,23.80
2023-06-27T03:11:46.892Z,23.80
2023-06-27T03:14:19.423Z,23.80
2023-06-27T03:16:49.688Z,23.70
2023-06-27T03:19:22.278Z,23.70
2023-06-27T03:21:54.472Z,23.70
2023-06-27T03:24:21.310Z,23.70
2023-06-27T03:26:50.415Z,23.70
2023-06-27T03:29:19.660Z,23.70
2023-06-27T03:31:48.046Z,23.70
2023-06-27T03:34:15.229Z,23.70
2023-06-27T03:36:42.116Z,23.70
2023-06-27T03:39:08.955Z,23.70
2023-06-27T03:41:36.440Z,23.70
2023-06-27T03:44:06.542Z,23.70
2023-06-27T03:46:33.669Z,23.70
2023-06-27T03:49:03.394Z,23.70
2023-06-27T03:51:31.429Z,23.70
2023-06-27T03:53:59.616Z,23.80
2023-06-27T03:56:26.481Z,23.80
2023-06-27T03:58:53.662Z,23.80
2023-06-27T04:01:20.569Z,23.80
2023-06-27T04:03:47.525Z,23.80
2023-06-27T04:06:14.492Z,23.80
2023-06-27T04:08:42.225Z,23.90
2023-06-27T04:11:09.120Z,23.90
2023-06-27T04:13:36.044Z,23.90
2023-06-27T04:16:04.708Z,23.90
2023-06-27T04:18:31.964Z,23.90
2023-06-27T04:20:59.061Z,24.00
2023-06-27T04:23:26.380Z,24.00
2023-06-27T04:26:06.417Z,24.00
2023-06-27T04:28:35.361Z,24.10
2023-06-27T04:31:02.600Z,24.10
2023-06-27T04:33:29.878Z,24.20
2023-06-27T04:36:02.495Z,24.30
2023-06-27T04:38:38.847Z,24.40
2023-06-27T04:41:06.093Z,24.40
2023-06-27T04:43:37.258Z,24.50
2023-06-27T04:46:04.898Z,24.60
2023-06-27T04:48:32.091Z,24.60
2023-06-27T04:51:00.561Z,24.70
2023-06-27T04:53:28.774Z,24.80
2023-06-27T04:55:55.688Z,24.90
2023-06-27T04:58:22.551Z,25.00
2023-06-27T05:00:49.532Z,25.00
2023-06-27T05:03:16.598Z,25.10
2023-06-27T05:05:43.948Z,25.20
2023-06-27T05:08:11.310Z,25.30
2023-06-27T05:10:38.258Z,25.30
2023-06-27T05:13:05.213Z,25.40
2023-06-27T05:15:32.058Z,25.50
2023-06-27T05:18:08.004Z,25.60
2023-06-27T05:20:35.377Z,25.70
2023-06-27T05:23:06.677Z,25.80
2023-06-27T05:25:33.628Z,26.00
2023-06-27T05:28:00.642Z,26.20
2023-06-27T05:30:28.234Z,26.40
2023-06-27T05:32:55.748Z,26.70
2023-06-27T05:35:23.328Z,27.30
2023-06-27T05:37:50.243Z,27.80
2023-06-27T05:40:17.126Z,28.10
2023-06-27T05:42:44.048Z,28.20
2023-06-27T05:45:11.261Z,28.20
2023-06-27T05:47:38.143Z,28.20
2023-06-27T05:50:05.449Z,28.30
2023-06-27T05:52:33.046Z,28.40
2023-06-27T05:54:59.963Z,28.50
2023-06-27T05:57:26.885Z,28.70
2023-06-27T05:59:53.800Z,28.80
2023-06-27T06:02:21.105Z,28.90
2023-06-27T06:04:48.045Z,29.20
2023-06-27T06:07:15.418Z,29.60
2023-06-27T06:09:42.390Z,30.10
2023-06-27T06:12:09.512Z,30.60
2023-06-27T06:14:36.387Z,31.00
2023-06-27T06:17:03.362Z,31.30
2023-06-27T06:19:30.203Z,31.40
2023-06-27T06:21:57.073Z,31.60
2023-06-27T06:24:24.102Z,31.90
2023-06-27T06:26:50.969Z,32.20
2023-06-27T06:29:17.778Z,32.70
2023-06-27T06:31:45.656Z,33.10
2023-06-27T06:34:13.097Z,33.50
2023-06-27T06:36:39.935Z,33.90
2023-06-27T06:39:06.808Z,34.10
2023-06-27T06:41:33.780Z,34.20
2023-06-27T06:44:00.618Z,34.40
2023-06-27T06:46:27.628Z,34.90
2023-06-27T06:48:54.489Z,35.40
2023-06-27T06:51:24.215Z,35.70
2023-06-27T06:53:51.218Z,35.90
2023-06-27T06:56:18.146Z,36.00
2023-06-27T06:58:44.968Z,36.30
2023-06-27T07:01:11.867Z,36.80
2023-06-27T07:03:38.785Z,37.30
2023-06-27T07:06:05.722Z,37.70
2023-06-27T07:08:32.553Z,37.90
2023-06-27T07:10:59.578Z,38.00
2023-06-27T07:13:26.448Z,37.50
2023-06-27T07:15:53.291Z,36.80
2023-06-27T07:18:20.148Z,36.00
2023-06-27T07:20:47.132Z,35.40
2023-06-27T07:23:14.261Z,35.10
2023-06-27T07:25:41.431Z,34.70
2023-06-27T07:28:08.527Z,34.50
2023-06-27T07:30:35.471Z,34.20
2023-06-27T07:33:02.350Z,33.80
2023-06-27T07:35:32.091Z,33.50
2023-06-27T07:37:58.989Z,33.20
2023-06-27T07:40:25.904Z,32.90
2023-06-27T07:42:53.008Z,32.70
2023-06-27T07:45:19.921Z,32.50
2023-06-27T07:47:46.867Z,32.20
2023-06-27T07:50:13.871Z,32.00
2023-06-27T07:52:41.220Z,32.20
2023-06-27T07:55:08.303Z,32.30
2023-06-27T07:57:35.280Z,32.20
2023-06-27T08:00:02.288Z,32.10
2023-06-27T08:02:39.270Z,32.00
2023-06-27T08:05:07.227Z,31.80
2023-06-27T08:07:34.149Z,31.60
2023-06-27T08:10:01.164Z,31.50
2023-06-27T08:12:28.045Z,31.30
2023-06-27T08:14:55.216Z,31.30
2023-06-27T08:17:22.249Z,31.10
2023-06-27T08:19:49.199Z,31.10
2023-06-27T08:22:16.099Z,31.10
2023-06-27T08:24:42.999Z,31.20
2023-06-27T08:27:10.199Z,31.20
2023-06-27T08:29:37.113Z,31.20
2023-06-27T08:32:04.169Z,31.20
2023-06-27T08:34:33.361Z,31.30
2023-06-27T08:37:00.400Z,31.30
2023-06-27T08:39:27.750Z,31.20
2023-06-27T08:41:54.693Z,31.20
2023-06-27T08:44:21.629Z,31.10
2023-06-27T08:46:48.634Z,31.20
2023-06-27T08:49:23.056Z,31.40
2023-06-27T08:51:51.181Z,31.20
2023-06-27T08:54:23.655Z,31.20
2023-06-27T08:56:51.284Z,31.40
2023-06-27T08:59:20.685Z,31.30
2023-06-27T09:01:49.120Z,31.40
2023-06-27T09:04:16.433Z,31.50
2023-06-27T09:06:43.437Z,31.60
2023-06-27T09:09:12.178Z,31.70
2023-06-27T09:11:39.010Z,31.70
2023-06-27T09:14:06.544Z,31.70
2023-06-27T09:16:33.789Z,31.80
2023-06-27T09:19:00.753Z,31.70
2023-06-27T09:21:30.412Z,31.80
2023-06-27T09:23:57.306Z,31.90
2023-06-27T09:26:27.348Z,31.80
2023-06-27T09:28:54.369Z,31.90
2023-06-27T09:31:22.709Z,31.90
2023-06-27T09:33:52.568Z,32.00
2023-06-27T09:39:01.013Z,31.80
2023-06-27T09:41:40.051Z,31.80
2023-06-27T09:44:11.022Z,31.90
2023-06-27T09:46:38.106Z,32.10
2023-06-27T09:49:09.002Z,32.20
2023-06-27T09:51:36.015Z,32.10
2023-06-27T09:54:03.007Z,32.20
2023-06-27T09:56:33.186Z,32.30
2023-06-27T09:59:22.883Z,32.50
2023-06-27T10:01:52.377Z,32.40
2023-06-27T10:04:19.622Z,32.40
2023-06-27T10:06:46.740Z,32.30
2023-06-27T10:09:13.997Z,32.30
2023-06-27T10:11:41.112Z,32.40
2023-06-27T10:14:08.497Z,32.50
2023-06-27T10:16:35.761Z,32.20
2023-06-27T10:19:03.235Z,32.30
2023-06-27T10:21:30.885Z,32.40
2023-06-27T10:23:59.633Z,32.30
2023-06-27T10:26:27.680Z,32.30
2023-06-27T10:28:54.837Z,32.30
2023-06-27T10:31:48.274Z,32.40
2023-06-27T10:34:22.090Z,32.40
2023-06-27T10:37:00.550Z,32.40
2023-06-27T10:39:34.071Z,32.50
2023-06-27T10:42:04.407Z,32.70
2023-06-27T10:44:31.845Z,32.80
2023-06-27T10:47:16.921Z,32.90
2023-06-27T10:49:47.717Z,33.00
2023-06-27T10:52:21.630Z,33.10
2023-06-27T10:55:08.472Z,33.10
2023-06-27T10:57:41.964Z,33.10
2023-06-27T11:00:15.985Z,33.10
2023-06-27T11:02:43.676Z,33.30
2023-06-27T11:05:17.436Z,33.50
2023-06-27T11:07:54.318Z,33.50
2023-06-27T11:10:24.196Z,33.50
2023-06-27T11:12:52.385Z,33.40
2023-06-27T11:15:19.788Z,33.30
2023-06-27T11:17:47.233Z,33.10
2023-06-27T11:20:14.296Z,33.00
2023-06-27T11:22:41.347Z,33.00
2023-06-27T11:25:15.522Z,33.00
2023-06-27T11:27:42.569Z,33.00
2023-06-27T11:30:09.537Z,33.00
2023-06-27T11:32:38.718Z,32.90
2023-06-27T11:35:06.700Z,33.00
2023-06-27T11:37:33.607Z,33.00
2023-06-27T11:40:08.357Z,33.00
2023-06-27T11:42:36.543Z,33.10
2023-06-27T11:45:04.313Z,33.20
2023-06-27T11:47:31.267Z,33.30
2023-06-27T11:50:07.244Z,33.50
2023-06-27T11:52:36.109Z,33.60
2023-06-27T11:55:06.863Z,33.50
2023-06-27T11:57:42.873Z,33.10
2023-06-27T12:00:22.136Z,33.00
2023-06-27T12:02:58.425Z,32.80
2023-06-27T12:05:26.038Z,32.80
2023-06-27T12:07:56.125Z,32.80
2023-06-27T12:10:23.095Z,32.90
2023-06-27T12:12:50.796Z,32.80
2023-06-27T12:15:18.021Z,32.70
2023-06-27T12:18:04.527Z,32.70
2023-06-27T12:20:44.866Z,32.80
2023-06-27T12:23:11.897Z,32.90
2023-06-27T12:25:40.221Z,33.00
2023-06-27T12:28:07.862Z,33.10
2023-06-27T12:30:35.002Z,33.20
2023-06-27T12:33:02.452Z,33.30
2023-06-27T12:35:29.456Z,33.40
2023-06-27T12:37:56.324Z,33.50
2023-06-27T12:40:24.173Z,33.50
2023-06-27T12:42:51.774Z,33.50
2023-06-27T12:45:19.240Z,33.60
2023-06-27T12:47:47.237Z,33.60
2023-06-27T12:50:14.439Z,33.60
2023-06-27T12:52:41.826Z,33.50
2023-06-27T12:55:08.926Z,33.30
2023-06-27T12:57:36.050Z,33.30
2023-06-27T13:00:04.839Z,33.30
2023-06-27T13:02:33.108Z,33.10
2023-06-27T13:05:01.363Z,33.00
2023-06-27T13:07:28.269Z,33.00
2023-06-27T13:09:55.291Z,33.00
2023-06-27T13:12:22.699Z,32.90
2023-06-27T13:14:49.669Z,32.90
2023-06-27T13:17:16.564Z,32.80
2023-06-27T13:19:43.472Z,32.50
2023-06-27T13:22:10.354Z,32.40
2023-06-27T13:24:37.294Z,32.30
2023-06-27T13:27:04.251Z,32.30
2023-06-27T13:29:31.158Z,32.30
2023-06-27T13:31:58.027Z,32.30
2023-06-27T13:34:25.101Z,32.30
2023-06-27T13:36:52.092Z,32.30
2023-06-27T13:39:20.347Z,32.40
2023-06-27T13:41:47.234Z,32.40
2023-06-27T13:44:14.905Z,32.50
2023-06-27T13:46:41.822Z,32.50
2023-06-27T13:49:10.551Z,32.40
2023-06-27T13:51:37.505Z,32.50
2023-06-27T13:54:04.557Z,32.60
2023-06-27T13:56:31.738Z,32.70
2023-06-27T13:59:00.039Z,32.80
2023-06-27T14:01:27.420Z,32.80
2023-06-27T14:03:54.756Z,32.90
2023-06-27T14:06:22.035Z,33.00
2023-06-27T14:08:48.857Z,33.10
2023-06-27T14:11:15.863Z,33.20
2023-06-27T14:13:43.880Z,33.30
2023-06-27T14:16:11.466Z,33.20
2023-06-27T14:18:38.466Z,33.30
2023-06-27T14:21:09.058Z,33.50
2023-06-27T14:23:36.612Z,33.60
2023-06-27T14:26:03.898Z,33.70
2023-06-27T14:28:31.927Z,33.70
2023-06-27T14:30:59.587Z,33.80
2023-06-27T14:33:26.851Z,33.80
2023-06-27T14:35:54.454Z,33.70
2023-06-27T14:38:22.058Z,33.70
2023-06-27T14:40:49.248Z,33.90
2023-06-27T14:43:16.110Z,34.00
2023-06-27T14:45:43.196Z,34.20
2023-06-27T14:48:10.056Z,34.30
2023-06-27T14:50:37.150Z,34.50
2023-06-27T14:53:05.879Z,34.70
2023-06-27T14:55:33.089Z,34.90
2023-06-27T14:58:01.404Z,34.70
2023-06-27T15:00:29.555Z,34.40
2023-06-27T15:02:56.481Z,34.10
2023-06-27T15:05:23.592Z,33.90
2023-06-27T15:07:51.944Z,33.80
2023-06-27T15:10:21.056Z,33.80
2023-06-27T15:12:47.948Z,33.80
2023-06-27T15:15:14.965Z,33.90
2023-06-27T15:17:41.966Z,33.90
2023-06-27T15:20:09.085Z,33.90
2023-06-27T15:22:36.009Z,34.10
2023-06-27T15:25:03.451Z,34.10
2023-06-27T15:27:30.321Z,34.00
2023-06-27T15:29:57.238Z,33.80
2023-06-27T15:32:24.145Z,33.70
2023-06-27T15:34:51.002Z,33.70
2023-06-27T15:37:19.129Z,33.70
2023-06-27T15:39:46.493Z,33.50
2023-06-27T15:42:13.441Z,33.50
2023-06-27T15:44:40.459Z,33.50
2023-06-27T15:47:13.203Z,33.50
2023-06-27T15:49:40.454Z,33.50
2023-06-27T15:52:07.486Z,33.50
2023-06-27T15:54:34.342Z,33.40
2023-06-27T15:57:01.394Z,33.30
2023-06-27T15:59:28.364Z,33.20
2023-06-27T16:01:55.194Z,33.20
2023-06-27T16:04:22.241Z,33.10
2023-06-27T16:06:49.208Z,33.20
2023-06-27T16:09:16.073Z,33.30
2023-06-27T16:11:42.928Z,33.30
2023-06-27T16:14:09.790Z,33.40
2023-06-27T16:16:36.644Z,33.40
2023-06-27T16:19:03.486Z,33.40
2023-06-27T16:21:30.587Z,33.40
2023-06-27T16:23:57.417Z,33.50
2023-06-27T16:26:24.292Z,33.50
2023-06-27T16:28:51.363Z,33.50
2023-06-27T16:31:18.210Z,33.40
2023-06-27T16:33:45.086Z,33.30
2023-06-27T16:36:12.940Z,33.10
2023-06-27T16:38:39.995Z,32.90
2023-06-27T16:41:06.942Z,32.60
2023-06-27T16:43:33.898Z,32.40
2023-06-27T16:46:00.792Z,32.30
2023-06-27T16:48:27.735Z,32.20
2023-06-27T16:50:54.644Z,32.10
2023-06-27T16:53:22.471Z,32.10
2023-06-27T16:55:50.340Z,32.00
2023-06-27T16:58:17.437Z,32.00
2023-06-27T17:00:44.360Z,31.90
2023-06-27T17:03:11.509Z,31.80
2023-06-27T17:05:38.646Z,31.70
2023-06-27T17:08:06.320Z,31.60
2023-06-27T17:10:33.293Z,31.60
2023-06-27T17:13:00.302Z,31.60
2023-06-27T17:15:27.800Z,31.50
2023-06-27T17:17:54.827Z,31.40
2023-06-27T17:20:21.829Z,31.40
2023-06-27T17:22:49.196Z,31.40
2023-06-27T17:25:18.394Z,31.30
2023-06-27T17:27:47.608Z,31.40
2023-06-27T17:30:14.580Z,31.30
2023-06-27T17:32:41.438Z,31.30
2023-06-27T17:35:10.295Z,31.40
2023-06-27T17:37:37.150Z,31.40
2023-06-27T17:40:04.532Z,31.40
2023-06-27T17:42:32.161Z,31.40
2023-06-27T17:44:59.223Z,31.50
2023-06-27T17:47:26.116Z,31.50
2023-06-27T17:49:53.141Z,31.50
2023-06-27T17:52:20.058Z,31.50
2023-06-27T17:54:47.326Z,31.50
2023-06-27T17:57:14.912Z,31.50
2023-06-27T17:59:41.800Z,31.40
2023-06-27T18:02:08.739Z,31.30
2023-06-27T18:04:35.621Z,31.20
2023-06-27T18:07:03.751Z,31.10
2023-06-27T18:09:30.593Z,30.90
2023-06-27T18:11:57.500Z,30.90
2023-06-27T18:14:24.400Z,30.80
2023-06-27T18:16:51.236Z,30.70
2023-06-27T18:19:18.192Z,30.50
2023-06-27T18:21:45.076Z,30.40
2023-06-27T18:24:11.888Z,30.20
2023-06-27T18:26:38.714Z,30.10
2023-06-27T18:29:05.846Z,30.00
2023-06-27T18:31:32.811Z,30.00
2023-06-27T18:34:02.805Z,29.90
2023-06-27T18:36:30.070Z,29.70
2023-06-27T18:38:57.023Z,29.60
2023-06-27T18:41:23.909Z,29.40
2023-06-27T18:43:50.760Z,29.30
2023-06-27T18:46:17.652Z,29.20
2023-06-27T18:48:45.317Z,29.10
2023-06-27T18:51:12.163Z,29.10
2023-06-27T18:53:39.002Z,28.90
2023-06-27T18:56:05.862Z,28.80
2023-06-27T18:58:32.753Z,28.60
2023-06-27T19:01:00.450Z,28.40
2023-06-27T19:03:27.588Z,28.20
2023-06-27T19:05:54.476Z,28.00
2023-06-27T19:08:21.307Z,27.70
2023-06-27T19:10:48.148Z,27.50
2023-06-27T19:13:15.039Z,27.30
2023-06-27T19:15:41.976Z,27.10
2023-06-27T19:18:09.305Z,26.90
2023-06-27T19:20:36.679Z,26.70
2023-06-27T19:23:05.269Z,26.60
2023-06-27T19:25:32.188Z,26.50
2023-06-27T19:27:59.438Z,26.40
2023-06-27T19:30:26.301Z,26.20
2023-06-27T19:32:53.201Z,26.10
2023-06-27T19:35:20.109Z,25.90
2023-06-27T19:37:46.934Z,25.90
2023-06-27T19:40:13.960Z,25.70
2023-06-27T19:42:40.864Z,25.60
2023-06-27T19:45:07.957Z,25.50
2023-06-27T19:47:34.952Z,25.50
2023-06-27T19:50:01.825Z,25.40
2023-06-27T19:52:28.905Z,25.40
2023-06-27T19:54:57.939Z,25.40
2023-06-27T19:57:24.808Z,25.30
2023-06-27T19:59:51.663Z,25.20
2023-06-27T20:02:18.537Z,25.10
2023-06-27T20:04:45.438Z,25.10
2023-06-27T20:07:12.408Z,25.00
2023-06-27T20:09:42.961Z,25.00
2023-06-27T20:12:10.727Z,24.90
2023-06-27T20:14:37.602Z,24.80
2023-06-27T20:17:04.720Z,24.80
2023-06-27T20:19:31.727Z,24.80
2023-06-27T20:21:58.582Z,24.70
2023-06-27T20:24:25.391Z,24.70
2023-06-27T20:26:52.205Z,24.60
2023-06-27T20:29:19.028Z,24.60
2023-06-27T20:31:45.926Z,24.60
2023-06-27T20:34:13.229Z,24.50
2023-06-27T20:36:40.078Z,24.50
2023-06-27T20:39:07.989Z,24.50
2023-06-27T20:41:36.446Z,24.50
2023-06-27T20:44:03.397Z,24.40
2023-06-27T20:46:30.267Z,24.40
2023-06-27T20:48:57.116Z,24.40
2023-06-27T20:51:23.964Z,24.40
2023-06-27T20:53:50.832Z,24.30
2023-06-27T20:56:18.328Z,24.40
2023-06-27T20:58:45.188Z,24.40
2023-06-27T21:01:12.055Z,24.50
2023-06-27T21:03:40.844Z,24.60
2023-06-27T21:06:07.899Z,24.60
2023-06-27T21:08:34.810Z,24.70
2023-06-27T21:11:01.640Z,24.80
2023-06-27T21:13:30.262Z,24.80
2023-06-27T21:15:58.375Z,24.90
2023-06-27T21:18:25.280Z,24.90
2023-06-27T21:20:52.126Z,24.90
2023-06-27T21:23:19.010Z,24.90
2023-06-27T21:25:45.851Z,25.00
2023-06-27T21:28:12.689Z,25.00
2023-06-27T21:30:39.913Z,24.90
2023-06-27T21:33:07.096Z,24.90
2023-06-27T21:35:34.046Z,24.90
2023-06-27T21:38:00.951Z,25.00
2023-06-27T21:40:27.864Z,25.00
2023-06-27T21:42:54.852Z,25.00
2023-06-27T21:45:23.343Z,25.00
2023-06-27T21:47:50.203Z,25.00
2023-06-27T21:50:37.363Z,25.00
2023-06-27T21:53:04.404Z,25.00
2023-06-27T21:55:31.225Z,24.90
2023-06-27T21:57:58.076Z,24.80
2023-06-27T22:00:25.087Z,24.80
2023-06-27T22:02:52.179Z,24.80
2023-06-27T22:05:19.674Z,24.80
2023-06-27T22:07:50.251Z,24.80
2023-06-27T22:10:17.888Z,24.80
2023-06-27T22:12:45.106Z,24.70
2023-06-27T22:15:12.007Z,24.60
2023-06-27T22:17:38.984Z,24.60
2023-06-27T22:20:08.138Z,24.50
2023-06-27T22:22:35.505Z,24.50
2023-06-27T22:25:02.856Z,24.40
2023-06-27T22:27:29.748Z,24.30
2023-06-27T22:29:56.602Z,24.20
2023-06-27T22:32:23.542Z,24.20
2023-06-27T22:34:51.056Z,24.20
2023-06-27T22:37:18.806Z,24.20
2023-06-27T22:39:45.950Z,24.20
2023-06-27T22:42:12.813Z,24.20
2023-06-27T22:44:39.839Z,24.10
2023-06-27T22:47:07.011Z,24.10
2023-06-27T22:49:34.756Z,24.10
2023-06-27T22:52:01.671Z,24.10
2023-06-27T22:54:28.841Z,24.10
2023-06-27T22:56:55.687Z,24.10
2023-06-27T22:59:22.525Z,24.10
2023-06-27T23:01:49.394Z,24.10
2023-06-27T23:04:16.244Z,24.10
2023-06-27T23:06:43.186Z,24.10
2023-06-27T23:09:10.031Z,24.10
2023-06-27T23:11:36.837Z,24.20
2023-06-27T23:14:03.718Z,24.10
2023-06-27T23:16:34.119Z,24.10
2023-06-27T23:19:01.439Z,24.10
2023-06-27T23:21:28.850Z,24.10
2023-06-27T23:23:56.233Z,24.10
2023-06-27T23:26:23.220Z,24.00
2023-06-27T23:28:50.562Z,24.00
2023-06-27T23:31:18.181Z,23.90
2023-06-27T23:33:45.152Z,23.90
2023-06-27T23:36:13.143Z,23.80
2023-06-27T23:38:40.294Z,23.80
2023-06-27T23:41:07.169Z,23.80
2023-06-27T23:43:34.028Z,23.70
2023-06-27T23:46:00.885Z,23.70
2023-06-27T23:48:27.919Z,23.70
2023-06-27T23:50:54.821Z,23.70
2023-06-27T23:53:21.737Z,23.80
2023-06-27T23:55:49.002Z,23.80
2023-06-27T23:58:15.822Z,23.90
